Time;durP1;ratioP1;P1;durP2;ratioP2;P2;SDS_P1;SDS_P2;PMS_P1;PMS_P2;Temp;Humidity;BMP_temperature;BMP_pressure;BME280_temperature;BME280_humidity;BME280_pressure;Samples;Min_cycle;Max_cycle;Signal;HPM_P1;HPM_P2
2022/12/20 00:00:22;;;;;;;28.52;11.38;;;;;;;8.50;100.00;100063.47;5000030;28;20034;-71
2022/12/20 00:02:48;;;;;;;27.40;11.93;;;;;;;8.45;100.00;100058.81;5017795;28;20044;-72
2022/12/20 00:05:14;;;;;;;21.85;10.57;;;;;;;8.43;100.00;100052.72;5017539;28;20029;-72
2022/12/20 00:07:39;;;;;;;25.65;10.75;;;;;;;8.39;100.00;100057.22;4983364;28;20033;-72
2022/12/20 00:10:05;;;;;;;24.23;11.23;;;;;;;8.37;100.00;100053.88;5000198;28;20396;-72
2022/12/20 00:12:31;;;;;;;22.92;12.05;;;;;;;8.35;100.00;100061.63;4999983;28;20528;-72
2022/12/20 00:14:56;;;;;;;28.80;12.20;;;;;;;8.34;100.00;100059.16;4984111;28;20032;-72
2022/12/20 00:17:22;;;;;;;27.52;11.35;;;;;;;8.32;100.00;100061.38;5016103;28;20030;-72
2022/12/20 00:19:47;;;;;;;21.13;10.38;;;;;;;8.30;100.00;100050.59;5016298;28;20040;-72
2022/12/20 00:22:13;;;;;;;27.02;10.88;;;;;;;8.28;100.00;100050.09;4983327;28;20084;-72
2022/12/20 00:24:38;;;;;;;24.50;11.10;;;;;;;8.27;100.00;100049.28;5005790;28;20041;-72
2022/12/20 00:27:04;;;;;;;26.42;10.90;;;;;;;8.28;100.00;100059.22;5013088;28;20033;-72
2022/12/20 00:29:29;;;;;;;24.92;11.65;;;;;;;8.26;100.00;100055.06;5016147;28;20042;-72
2022/12/20 00:31:54;;;;;;;23.58;11.32;;;;;;;8.26;100.00;100058.66;4982167;28;20403;-72
2022/12/20 00:34:20;;;;;;;22.63;11.20;;;;;;;8.25;100.00;100057.03;4999289;28;20041;-72
2022/12/20 00:36:45;;;;;;;25.50;11.63;;;;;;;8.26;100.00;100041.25;5028592;28;20053;-71
2022/12/20 00:39:11;;;;;;;25.13;12.38;;;;;;;8.24;100.00;100030.44;5016819;28;20030;-72
2022/12/20 00:41:37;;;;;;;20.55;10.93;;;;;;;8.24;100.00;100030.44;4999549;28;20030;-72
2022/12/20 00:44:02;;;;;;;26.77;11.73;;;;;;;8.23;100.00;100037.13;5015342;28;20037;-72
2022/12/20 00:46:28;;;;;;;22.92;10.68;;;;;;;8.26;100.00;100024.66;5016951;28;20093;-71
2022/12/20 00:48:54;;;;;;;24.70;10.05;;;;;;;8.26;100.00;100019.94;4999166;28;20040;-72
2022/12/20 00:51:21;;;;;;;20.92;11.02;;;;;;;8.22;100.00;100029.94;4999240;28;20030;-72
2022/12/20 00:53:47;;;;;;;21.67;10.35;;;;;;;8.23;100.00;100028.81;4999198;28;20058;-72
2022/12/20 00:56:12;;;;;;;22.45;11.05;;;;;;;8.23;100.00;100030.75;5015127;28;20360;-72
2022/12/20 00:58:39;;;;;;;27.58;11.10;;;;;;;8.23;100.00;100030.75;5015160;28;20038;-72
2022/12/20 01:01:06;;;;;;;22.88;10.70;;;;;;;8.22;100.00;100012.53;4999250;28;20394;-72
2022/12/20 01:03:31;;;;;;;26.60;10.88;;;;;;;8.24;100.00;100011.09;5016639;28;20069;-72
2022/12/20 01:06:01;;;;;;;27.08;10.48;;;;;;;8.24;100.00;100015.81;5016557;28;20061;-71
2022/12/20 01:08:27;;;;;;;24.23;10.65;;;;;;;8.24;100.00;100007.50;5014837;28;20061;-72
2022/12/20 01:11:19;;;;;;;19.80;10.57;;;;;;;8.24;100.00;100011.09;5015080;28;20028;-72
2022/12/20 01:13:46;;;;;;;20.25;10.35;;;;;;;8.23;100.00;100011.41;5010961;28;20030;-72
2022/12/20 01:16:14;;;;;;;29.17;11.35;;;;;;;8.22;100.00;100007.00;5015251;28;20105;-71
2022/12/20 01:18:40;;;;;;;23.25;10.25;;;;;;;8.22;100.00;100007.81;4982526;28;20064;-72
2022/12/20 01:21:08;;;;;;;22.40;10.38;;;;;;;8.22;100.00;100018.88;4982200;28;20037;-72
2022/12/20 01:23:33;;;;;;;23.92;10.55;;;;;;;8.22;100.00;100013.34;5013169;28;20041;-72
2022/12/20 01:25:59;;;;;;;22.92;10.35;;;;;;;8.23;100.00;100001.16;5036664;28;20466;-72
2022/12/20 01:28:25;;;;;;;20.48;10.00;;;;;;;8.23;100.00;100009.44;5013214;28;20038;-71
2022/12/20 01:30:50;;;;;;;25.55;10.68;;;;;;;8.22;100.00;100002.28;5014659;28;20383;-72
2022/12/20 01:33:16;;;;;;;22.20;9.65;;;;;;;8.24;100.00;100001.97;4996612;28;20059;-72
2022/12/20 01:35:41;;;;;;;19.98;9.98;;;;;;;8.24;100.00;100005.56;5014960;28;20033;-72
2022/12/20 01:38:07;;;;;;;21.90;9.70;;;;;;;8.25;100.00;100003.63;5015361;28;20054;-72
2022/12/20 01:40:32;;;;;;;21.13;9.65;;;;;;;8.24;100.00;99988.97;5015325;28;20034;-72
2022/12/20 01:42:58;;;;;;;24.77;9.73;;;;;;;8.27;100.00;99998.63;5014680;28;20499;-72
2022/12/20 01:45:28;;;;;;;22.55;10.15;;;;;;;8.28;100.00;99990.03;5015203;28;20045;-72
2022/12/20 01:47:53;;;;;;;23.40;10.02;;;;;;;8.34;100.00;99981.69;4964236;28;20030;-72
2022/12/20 01:50:19;;;;;;;23.23;9.40;;;;;;;8.36;100.00;99979.44;5016031;28;20033;-72
2022/12/20 01:52:44;;;;;;;25.52;9.82;;;;;;;8.38;100.00;99972.50;5014229;28;20030;-72
2022/12/20 01:55:19;;;;;;;17.70;9.27;;;;;;;8.39;100.00;99974.19;4998102;28;20037;-72
2022/12/20 01:57:59;;;;;;;24.52;9.77;;;;;;;8.43;100.00;99974.44;4998572;28;20062;-72
2022/12/20 02:00:25;;;;;;;27.60;10.38;;;;;;;8.46;100.00;99968.31;4998691;28;20113;-72
2022/12/20 02:02:50;;;;;;;24.45;9.88;;;;;;;8.44;100.00;99970.53;4998375;28;20040;-72
2022/12/20 02:05:18;;;;;;;26.05;10.65;;;;;;;8.46;100.00;99966.34;5015586;28;20443;-72
2022/12/20 02:07:45;;;;;;;28.55;9.07;;;;;;;8.49;100.00;99976.03;4997815;28;20033;-72
2022/12/20 02:10:10;;;;;;;31.20;10.18;;;;;;;8.50;100.00;99972.97;4981825;28;20041;-72
2022/12/20 02:12:43;;;;;;;26.63;10.10;;;;;;;8.53;100.00;99974.34;5005909;28;20062;-72
2022/12/20 02:15:27;;;;;;;24.70;9.70;;;;;;;8.57;100.00;99978.16;5014399;28;20026;-72
2022/12/20 02:18:10;;;;;;;26.05;10.10;;;;;;;8.58;100.00;99960.44;5015352;28;20033;-72
2022/12/20 02:20:37;;;;;;;30.52;9.90;;;;;;;8.60;100.00;99968.44;5015355;28;20041;-72
2022/12/20 02:23:32;;;;;;;24.63;8.60;;;;;;;8.61;100.00;99976.47;5015294;28;20087;-72
2022/12/20 02:26:23;;;;;;;26.33;9.82;;;;;;;8.63;100.00;99951.22;5035439;28;20034;-72
2022/12/20 02:28:54;;;;;;;26.80;9.70;;;;;;;8.62;100.00;99955.94;5015551;28;20030;-72
2022/12/20 02:31:24;;;;;;;29.25;9.68;;;;;;;8.66;100.00;99950.63;5015833;28;20030;-72
2022/12/20 02:33:49;;;;;;;23.02;8.57;;;;;;;8.66;100.00;99945.94;4987632;28;20056;-72
2022/12/20 02:36:18;;;;;;;27.33;10.32;;;;;;;8.67;100.00;99935.69;5004616;28;20045;-72
2022/12/20 02:38:43;;;;;;;22.88;9.05;;;;;;;8.69;100.00;99945.34;5013882;28;20501;-72
2022/12/20 02:41:14;;;;;;;20.88;8.85;;;;;;;8.71;100.00;99956.94;5015134;28;20088;-72
2022/12/20 02:46:25;;;;;;;22.85;10.07;;;;;;;8.75;100.00;99934.19;5013903;28;20030;-72
2022/12/20 02:48:50;;;;;;;26.52;9.13;;;;;;;8.76;100.00;99935.88;4981465;28;20608;-72
2022/12/20 02:51:16;;;;;;;26.10;9.40;;;;;;;8.78;100.00;99928.09;5016690;28;20105;-71
2022/12/20 02:53:41;;;;;;;33.20;9.35;;;;;;;8.84;100.00;99938.81;4968917;28;20367;-71
2022/12/20 02:56:07;;;;;;;24.77;9.70;;;;;;;8.83;100.00;99928.00;5001545;28;20041;-72
2022/12/20 02:58:32;;;;;;;27.83;9.68;;;;;;;8.88;100.00;99925.19;5018655;28;20160;-72
2022/12/20 03:01:03;;;;;;;29.42;10.00;;;;;;;8.89;100.00;99926.84;5019081;28;20402;-72
2022/12/20 03:03:32;;;;;;;25.80;9.70;;;;;;;8.94;100.00;99929.53;5002618;28;20025;-72
2022/12/20 03:05:58;;;;;;;30.98;9.63;;;;;;;8.93;100.00;99928.69;5017415;28;20042;-72
2022/12/20 03:08:23;;;;;;;27.55;9.57;;;;;;;8.93;100.00;99923.16;5017085;28;20041;-72
2022/12/20 03:10:50;;;;;;;23.45;9.68;;;;;;;8.90;100.00;99912.69;5017408;28;20236;-71
2022/12/20 03:13:15;;;;;;;26.15;10.05;;;;;;;8.93;100.00;99944.50;5006014;28;20041;-71
2022/12/20 03:15:41;;;;;;;31.70;10.40;;;;;;;8.98;100.00;99927.81;5017345;28;20030;-71
2022/12/20 03:18:06;;;;;;;28.67;9.88;;;;;;;9.00;100.00;99916.44;5001073;28;20036;-72
2022/12/20 03:20:32;;;;;;;28.35;10.13;;;;;;;9.03;100.00;99919.44;5000894;28;20536;-72
2022/12/20 03:22:57;;;;;;;33.78;13.52;;;;;;;9.03;100.00;99918.63;5017030;28;20026;-72
2022/12/20 03:25:23;;;;;;;29.25;10.95;;;;;;;9.05;100.00;99913.59;5005139;28;20029;-71
2022/12/20 03:27:48;;;;;;;30.05;10.45;;;;;;;9.05;100.00;99925.50;5026944;28;20444;-72
2022/12/20 03:30:14;;;;;;;28.08;9.90;;;;;;;9.05;100.00;99913.59;5021470;28;20037;-72
2022/12/20 03:32:39;;;;;;;37.72;10.35;;;;;;;9.04;100.00;99918.31;5008732;28;20034;-71
2022/12/20 03:35:05;;;;;;;28.55;9.98;;;;;;;9.03;100.00;99916.69;5014998;28;20045;-72
2022/12/20 03:37:31;;;;;;;31.25;10.75;;;;;;;9.03;100.00;99911.13;5017467;28;20053;-71
2022/12/20 03:39:56;;;;;;;31.10;10.50;;;;;;;9.04;100.00;99921.09;5018145;28;20470;-71
2022/12/20 03:42:22;;;;;;;31.08;11.10;;;;;;;9.06;100.00;99923.56;5018062;28;20029;-72
2022/12/20 03:44:47;;;;;;;27.40;9.93;;;;;;;9.09;100.00;99926.56;5016649;28;20089;-72
2022/12/20 03:47:13;;;;;;;24.52;10.20;;;;;;;9.09;100.00;99906.34;5015440;28;20037;-72
2022/12/20 03:49:38;;;;;;;31.15;9.98;;;;;;;9.10;100.00;99916.28;4984020;28;20519;-72
2022/12/20 03:52:04;;;;;;;27.73;10.15;;;;;;;9.12;100.00;99916.81;5016644;28;20044;-72
2022/12/20 03:54:29;;;;;;;28.38;10.70;;;;;;;9.14;100.00;99928.44;5000647;28;20038;-72
2022/12/20 03:56:54;;;;;;;27.88;9.98;;;;;;;9.13;100.00;99922.06;5016712;28;20037;-72
2022/12/20 03:59:20;;;;;;;29.50;10.95;;;;;;;9.16;100.00;99927.03;5017606;28;20038;-72
2022/12/20 04:01:45;;;;;;;26.98;10.50;;;;;;;9.17;100.00;99928.66;5015579;28;20026;-72
2022/12/20 04:04:12;;;;;;;27.67;9.82;;;;;;;9.20;100.00;99920.88;5000154;28;20033;-72
2022/12/20 04:06:37;;;;;;;25.30;9.95;;;;;;;9.20;100.00;99920.88;5016272;28;20074;-72
2022/12/20 04:09:03;;;;;;;30.88;10.32;;;;;;;9.24;100.00;99933.00;5017418;28;20030;-72
2022/12/20 04:11:28;;;;;;;26.25;11.10;;;;;;;9.24;100.00;99938.53;5016354;28;20033;-72
2022/12/20 04:13:54;;;;;;;27.83;11.20;;;;;;;9.25;100.00;99937.41;5017271;28;20160;-72
2022/12/20 04:16:21;;;;;;;34.78;10.43;;;;;;;9.23;100.00;99943.25;5016515;28;20753;-72
2022/12/20 04:18:46;;;;;;;29.50;10.25;;;;;;;9.27;100.00;99933.22;5017489;28;20037;-72
2022/12/20 04:21:12;;;;;;;31.58;11.02;;;;;;;9.27;100.00;99932.41;5016036;28;20026;-72
2022/12/20 04:23:38;;;;;;;33.65;11.40;;;;;;;9.30;100.00;99934.56;5014803;28;20034;-72
2022/12/20 04:26:05;;;;;;;36.70;11.10;;;;;;;9.34;100.00;99930.09;5021330;28;20080;-72
2022/12/20 04:28:30;;;;;;;23.85;10.13;;;;;;;9.35;100.00;99935.31;5017092;28;20531;-72
2022/12/20 04:30:56;;;;;;;30.95;10.73;;;;;;;9.35;100.00;99931.72;5032444;28;20037;-72
2022/12/20 04:33:22;;;;;;;32.55;10.98;;;;;;;9.34;100.00;99938.41;4983622;28;20034;-72
2022/12/20 04:35:47;;;;;;;36.63;11.93;;;;;;;9.36;100.00;99941.69;4983307;28;20038;-72
2022/12/20 04:38:12;;;;;;;32.05;11.63;;;;;;;9.40;100.00;99939.97;4998928;28;20077;-72
2022/12/20 04:40:38;;;;;;;31.67;11.90;;;;;;;9.38;100.00;99944.97;5016677;28;20037;-72
2022/12/20 04:43:03;;;;;;;31.40;10.95;;;;;;;9.39;100.00;99944.69;5019451;28;20471;-72
2022/12/20 04:45:29;;;;;;;32.88;11.73;;;;;;;9.39;100.00;99943.88;5016968;28;20026;-72
2022/12/20 04:47:54;;;;;;;31.17;12.05;;;;;;;9.38;100.00;99945.78;5016868;28;20033;-73
2022/12/20 04:50:20;;;;;;;26.40;11.20;;;;;;;9.36;100.00;99948.06;5016653;28;20034;-72
2022/12/20 04:55:30;;;;;;;26.92;10.27;;;;;;;9.34;100.00;99943.94;5015920;28;20044;-72
2022/12/20 04:57:55;;;;;;;34.95;11.30;;;;;;;9.34;100.00;99947.53;5016654;28;20486;-72
2022/12/20 05:00:21;;;;;;;24.73;10.90;;;;;;;9.34;100.00;99941.16;5015426;28;20037;-72
2022/12/20 05:02:46;;;;;;;29.42;10.85;;;;;;;9.33;100.00;99942.28;5015039;28;20049;-72
2022/12/20 05:05:12;;;;;;;29.48;11.38;;;;;;;9.31;100.00;99941.78;5016536;28;20030;-72
2022/12/20 05:07:38;;;;;;;19.80;10.90;;;;;;;9.32;100.00;99935.09;5016297;28;20492;-72
2022/12/20 05:10:04;;;;;;;29.40;11.18;;;;;;;9.33;100.00;99943.13;4999070;28;20108;-72
2022/12/20 05:12:30;;;;;;;28.40;11.52;;;;;;;9.35;100.00;99945.59;5021169;28;20048;-73
2022/12/20 05:14:55;;;;;;;27.10;11.77;;;;;;;9.36;100.00;99936.13;5022190;28;20076;-72
2022/12/20 05:17:21;;;;;;;25.73;11.00;;;;;;;9.39;100.00;99941.09;4998752;28;20037;-72
2022/12/20 05:19:46;;;;;;;26.70;12.20;;;;;;;9.39;100.00;99946.66;5016382;28;20025;-72
2022/12/20 05:27:39;;;;;;;33.25;12.57;;;;;;;9.40;100.00;99943.56;5022917;28;20035;-72
2022/12/20 05:30:05;;;;;;;29.25;11.20;;;;;;;9.44;100.00;99943.78;5014673;28;20495;-72
2022/12/20 05:32:31;;;;;;;28.70;11.60;;;;;;;9.42;100.00;99934.94;5014084;28;20033;-72
2022/12/20 05:34:56;;;;;;;31.42;11.18;;;;;;;9.41;100.00;99933.28;5016310;28;20025;-72
2022/12/20 05:37:22;;;;;;;30.48;11.20;;;;;;;9.42;100.00;99939.66;5014205;28;20046;-72
2022/12/20 05:39:47;;;;;;;31.40;11.40;;;;;;;9.43;100.00;99944.09;5015835;28;20030;-72
2022/12/20 05:42:13;;;;;;;31.08;11.35;;;;;;;9.43;100.00;99944.91;5016052;28;20029;-72
2022/12/20 05:44:38;;;;;;;29.05;11.18;;;;;;;9.46;100.00;99941.53;5030897;28;20394;-72
2022/12/20 05:47:04;;;;;;;25.75;10.55;;;;;;;9.47;100.00;99947.88;5016087;28;20029;-72
2022/12/20 05:49:29;;;;;;;32.90;10.73;;;;;;;9.45;100.00;99939.06;5014477;28;20037;-72
2022/12/20 05:51:55;;;;;;;24.27;11.13;;;;;;;9.45;100.00;99939.91;5046204;28;20061;-72
2022/12/20 05:54:20;;;;;;;27.00;10.48;;;;;;;9.44;100.00;99931.88;5028846;28;20048;-72
2022/12/20 05:56:46;;;;;;;34.42;12.43;;;;;;;9.45;100.00;99928.81;5014680;28;20030;-72
2022/12/20 05:59:11;;;;;;;34.13;12.43;;;;;;;9.45;100.00;99933.53;4998206;28;20712;-72
2022/12/20 06:01:37;;;;;;;27.50;11.52;;;;;;;9.47;100.00;99937.66;4998102;28;20029;-72
2022/12/20 06:04:02;;;;;;;26.92;11.02;;;;;;;9.49;100.00;99934.56;5015492;28;20026;-72
2022/12/20 06:06:28;;;;;;;31.65;12.35;;;;;;;9.48;100.00;99933.75;5015909;28;20026;-72
2022/12/20 06:08:55;;;;;;;27.85;11.60;;;;;;;9.50;100.00;99942.59;5014187;28;20038;-72
2022/12/20 06:11:20;;;;;;;25.10;10.85;;;;;;;9.49;100.00;99937.34;5031198;28;20066;-72
2022/12/20 06:13:46;;;;;;;30.75;11.02;;;;;;;9.50;100.00;99938.97;5015456;28;20026;-72
2022/12/20 06:16:11;;;;;;;28.15;11.93;;;;;;;9.49;100.00;99929.84;5015386;28;20030;-72
2022/12/20 06:18:37;;;;;;;27.65;11.75;;;;;;;9.49;100.00;99938.16;5014275;28;20446;-72
2022/12/20 06:21:02;;;;;;;27.38;10.90;;;;;;;9.49;100.00;99934.56;5015571;28;20088;-72
2022/12/20 06:23:28;;;;;;;23.13;11.60;;;;;;;9.48;100.00;99942.06;5013311;28;20037;-72
2022/12/20 06:25:53;;;;;;;30.02;11.18;;;;;;;9.48;100.00;99942.06;5009816;28;20034;-72
2022/12/20 06:28:20;;;;;;;27.63;10.85;;;;;;;9.51;100.00;99935.09;5032506;28;20033;-72
2022/12/20 06:30:53;;;;;;;29.10;11.93;;;;;;;9.49;100.00;99940.94;5019462;28;20037;-72
2022/12/20 06:33:18;;;;;;;25.63;11.13;;;;;;;9.53;100.00;99930.09;5018217;28;20030;-72
2022/12/20 06:35:44;;;;;;;24.42;10.80;;;;;;;9.53;100.00;99930.91;5019690;28;20034;-72
2022/12/20 06:38:09;;;;;;;24.45;10.70;;;;;;;9.55;100.00;99933.34;5001422;28;20066;-72
2022/12/20 06:40:35;;;;;;;26.73;10.35;;;;;;;9.54;100.00;99931.72;5018949;28;20025;-72
2022/12/20 06:43:00;;;;;;;25.77;10.75;;;;;;;9.55;100.00;99931.41;5034676;28;20096;-72
2022/12/20 06:45:26;;;;;;;28.05;9.93;;;;;;;9.56;100.00;99930.28;5017784;28;20026;-72
2022/12/20 06:47:51;;;;;;;26.30;10.27;;;;;;;9.58;100.00;99928.06;5019130;28;20036;-72
2022/12/20 06:50:17;;;;;;;30.38;10.00;;;;;;;9.58;100.00;99924.44;5001638;28;20030;-72
2022/12/20 06:52:42;;;;;;;27.05;10.73;;;;;;;9.60;100.00;99920.22;5017337;28;20030;-72
2022/12/20 06:55:08;;;;;;;27.42;9.77;;;;;;;9.60;100.00;99923.00;5018953;28;20034;-72
2022/12/20 06:57:33;;;;;;;24.30;10.20;;;;;;;9.60;100.00;99938.81;5018986;28;20316;-73
2022/12/20 06:59:59;;;;;;;27.42;10.20;;;;;;;9.63;100.00;99924.34;5017773;28;20021;-72
2022/12/20 07:02:24;;;;;;;24.42;9.55;;;;;;;9.61;100.00;99924.69;5018739;28;20410;-73
2022/12/20 07:04:49;;;;;;;27.20;10.25;;;;;;;9.60;100.00;99927.72;5017470;28;20046;-73
2022/12/20 07:07:16;;;;;;;20.77;10.05;;;;;;;9.59;100.00;99926.91;5018370;28;20030;-73
2022/12/20 07:09:41;;;;;;;27.23;9.77;;;;;;;9.59;100.00;99928.88;5017659;28;20029;-72
2022/12/20 07:12:08;;;;;;;28.80;10.85;;;;;;;9.61;100.00;99932.16;5033881;28;20033;-72
2022/12/20 07:14:33;;;;;;;27.92;10.93;;;;;;;9.58;100.00;99921.66;5017518;28;20034;-73
2022/12/20 07:16:59;;;;;;;24.15;10.15;;;;;;;9.58;100.00;99927.22;5030376;28;20052;-72
2022/12/20 07:19:24;;;;;;;26.52;10.73;;;;;;;9.59;100.00;99934.41;5017462;28;20040;-72
2022/12/20 07:21:50;;;;;;;28.02;10.73;;;;;;;9.61;100.00;99932.16;5017950;28;20049;-73
2022/12/20 07:24:15;;;;;;;26.00;10.75;;;;;;;9.61;100.00;99921.91;5000828;28;20474;-72
2022/12/20 07:26:43;;;;;;;18.65;9.65;;;;;;;9.61;100.00;99921.06;5017187;28;20457;-72
2022/12/20 07:29:09;;;;;;;25.08;11.15;;;;;;;9.59;100.00;99928.88;5016990;28;20030;-72
2022/12/20 07:31:34;;;;;;;30.38;12.65;;;;;;;9.61;100.00;99929.38;5017731;28;20026;-71
2022/12/20 07:33:59;;;;;;;25.33;11.23;;;;;;;9.60;100.00;99927.72;5016632;28;20034;-72
2022/12/20 07:36:25;;;;;;;23.10;10.77;;;;;;;9.60;100.00;99930.50;5016006;28;20058;-72
2022/12/20 07:38:51;;;;;;;26.77;11.05;;;;;;;9.59;100.00;99928.88;5016350;28;20707;-72
2022/12/20 07:41:17;;;;;;;25.70;10.77;;;;;;;9.60;100.00;99925.78;5017796;28;20037;-72
2022/12/20 07:43:43;;;;;;;27.52;11.00;;;;;;;9.62;100.00;99922.72;5016484;28;20034;-72
2022/12/20 07:46:14;;;;;;;28.63;11.65;;;;;;;9.62;100.00;99929.09;5016758;28;20030;-72
2022/12/20 07:48:39;;;;;;;24.38;9.20;;;;;;;9.62;100.00;99936.59;5001236;28;20029;-72
2022/12/20 07:51:08;;;;;;;26.67;11.48;;;;;;;9.63;100.00;99927.94;5013412;28;20022;-72
2022/12/20 07:53:36;;;;;;;21.15;10.57;;;;;;;9.63;100.00;99925.16;5007473;28;20029;-72
2022/12/20 07:56:02;;;;;;;25.27;10.85;;;;;;;9.65;100.00;99921.28;5016603;28;20391;-72
2022/12/20 07:58:28;;;;;;;24.17;10.40;;;;;;;9.67;100.00;99927.34;5016727;28;20037;-72
2022/12/20 08:00:53;;;;;;;23.73;11.98;;;;;;;9.67;100.00;99916.25;5000239;28;20366;-73
2022/12/20 08:03:21;;;;;;;25.17;10.32;;;;;;;9.63;100.00;99927.94;5016639;28;20494;-72
2022/12/20 08:05:48;;;;;;;21.98;11.30;;;;;;;9.65;100.00;99926.84;5016173;28;20029;-72
2022/12/20 08:08:13;;;;;;;22.20;11.85;;;;;;;9.67;100.00;99930.97;5017422;28;20056;-72
2022/12/20 08:10:40;;;;;;;26.58;11.77;;;;;;;9.67;100.00;99927.34;5017558;28;20030;-72
2022/12/20 08:13:05;;;;;;;22.98;11.70;;;;;;;9.67;100.00;99932.88;5017608;28;20694;-72
2022/12/20 08:15:31;;;;;;;24.45;11.45;;;;;;;9.65;100.00;99933.19;5017528;28;20029;-72
2022/12/20 08:17:56;;;;;;;21.35;10.82;;;;;;;9.68;100.00;99929.00;4999367;28;20035;-72
2022/12/20 08:20:22;;;;;;;29.85;11.88;;;;;;;9.65;100.00;99922.13;5017067;28;20022;-72
2022/12/20 08:22:47;;;;;;;28.05;12.27;;;;;;;9.63;100.00;99922.41;5016104;28;20030;-72
2022/12/20 08:25:13;;;;;;;25.58;11.68;;;;;;;9.67;100.00;99941.19;5007744;28;20045;-72
2022/12/20 08:27:38;;;;;;;26.83;11.52;;;;;;;9.67;100.00;99935.66;4983558;28;20030;-72
2022/12/20 08:30:06;;;;;;;24.63;11.00;;;;;;;9.65;100.00;99927.66;5017531;28;20038;-72
2022/12/20 08:32:32;;;;;;;28.83;12.30;;;;;;;9.63;100.00;99929.91;5026953;28;20030;-72
2022/12/20 08:34:57;;;;;;;28.23;13.60;;;;;;;9.66;100.00;99934.84;5017331;28;20037;-72
2022/12/20 08:37:22;;;;;;;25.20;11.77;;;;;;;9.67;100.00;99943.97;5031918;28;20050;-72
2022/12/20 08:39:48;;;;;;;25.92;12.18;;;;;;;9.65;100.00;99949.03;5016982;28;20026;-72
2022/12/20 08:42:14;;;;;;;27.70;11.55;;;;;;;9.63;100.00;99947.34;5031385;28;20083;-72
2022/12/20 08:44:40;;;;;;;27.35;12.18;;;;;;;9.62;100.00;99948.50;5028727;28;20030;-72
2022/12/20 08:47:05;;;;;;;23.92;12.48;;;;;;;9.62;100.00;99962.34;5017032;28;20037;-72
2022/12/20 08:49:31;;;;;;;21.05;11.60;;;;;;;9.63;100.00;99958.44;5016363;28;20034;-72
2022/12/20 08:51:57;;;;;;;29.42;12.55;;;;;;;9.63;100.00;99969.53;5016621;28;20108;-72
2022/12/20 08:54:22;;;;;;;35.90;13.27;;;;;;;9.63;100.00;99964.00;5029987;28;20410;-72
2022/12/20 08:56:48;;;;;;;39.90;13.75;;;;;;;9.65;100.00;99958.16;5035214;28;20029;-72
2022/12/20 08:59:13;;;;;;;32.30;14.25;;;;;;;9.67;100.00;99952.28;5034571;28;20040;-72
2022/12/20 09:01:39;;;;;;;40.35;14.00;;;;;;;9.67;100.00;99958.69;5015463;28;20026;-72
2022/12/20 09:04:04;;;;;;;32.10;12.32;;;;;;;9.67;100.00;99960.59;5015317;28;20022;-72
2022/12/20 09:06:30;;;;;;;34.70;12.80;;;;;;;9.67;100.00;99960.59;4990828;28;20516;-72
2022/12/20 09:08:55;;;;;;;29.38;12.10;;;;;;;9.68;100.00;99965.06;5034853;28;20029;-72
2022/12/20 09:11:23;;;;;;;33.42;13.43;;;;;;;9.67;100.00;99957.84;5033845;28;20066;-72
2022/12/20 09:13:49;;;;;;;35.63;14.95;;;;;;;9.69;100.00;99959.19;5015120;28;20034;-72
2022/12/20 09:16:16;;;;;;;42.58;14.95;;;;;;;9.67;100.00;99958.69;5016716;28;20028;-72
2022/12/20 09:18:42;;;;;;;36.40;14.02;;;;;;;9.65;100.00;99960.94;4999036;28;20037;-72
2022/12/20 09:21:08;;;;;;;38.05;13.07;;;;;;;9.65;100.00;99949.84;5014632;28;20069;-72
2022/12/20 09:23:34;;;;;;;40.25;14.27;;;;;;;9.62;100.00;99951.25;4980413;28;20449;-72
2022/12/20 09:26:07;;;;;;;49.95;14.95;;;;;;;9.62;100.00;99951.25;5004990;28;20034;-72
2022/12/20 09:28:33;;;;;;;47.92;14.23;;;;;;;9.60;100.00;99950.72;4999168;28;20038;-72
2022/12/20 09:30:59;;;;;;;35.55;13.32;;;;;;;9.62;100.00;99951.25;5014964;28;20032;-72
2022/12/20 09:33:25;;;;;;;34.10;13.20;;;;;;;9.60;100.00;99947.13;5013605;28;20032;-72
2022/12/20 09:35:50;;;;;;;41.53;13.75;;;;;;;9.62;100.00;99953.22;5014875;28;20042;-72
2022/12/20 09:38:16;;;;;;;40.15;14.05;;;;;;;9.60;100.00;99950.72;5015740;28;20049;-72
2022/12/20 09:40:46;;;;;;;42.67;13.80;;;;;;;9.60;100.00;99953.50;4998485;28;20034;-72
2022/12/20 09:43:12;;;;;;;40.75;12.23;;;;;;;9.61;100.00;99954.31;4998174;28;20060;-72
2022/12/20 09:45:37;;;;;;;35.97;13.88;;;;;;;9.59;100.00;99957.41;5011379;28;20037;-72
2022/12/20 09:48:04;;;;;;;42.00;13.27;;;;;;;9.63;100.00;99968.72;5048587;28;20029;-72
2022/12/20 09:50:42;;;;;;;38.05;12.10;;;;;;;9.63;100.00;99969.53;5022419;28;20526;-72
2022/12/20 09:53:27;;;;;;;34.40;12.65;;;;;;;9.60;100.00;99972.09;5036135;28;20497;-72
2022/12/20 09:55:54;;;;;;;36.03;12.20;;;;;;;9.62;100.00;99967.06;5019053;28;20038;-72
2022/12/20 09:58:29;;;;;;;32.17;12.40;;;;;;;9.68;100.00;99970.59;4998445;28;20033;-72
2022/12/20 10:00:54;;;;;;;39.22;12.68;;;;;;;9.65;100.00;99962.88;5014961;28;20030;-72
2022/12/20 10:03:28;;;;;;;36.08;12.98;;;;;;;9.63;100.00;99968.72;5014572;28;20525;-72
2022/12/20 10:05:55;;;;;;;36.97;12.98;;;;;;;9.65;100.00;99968.44;4981673;28;20030;-72
2022/12/20 10:08:32;;;;;;;33.47;12.52;;;;;;;9.65;100.00;99965.66;5014074;28;20742;-72
2022/12/20 10:11:20;;;;;;;27.75;10.95;;;;;;;9.65;100.00;99960.09;5021353;28;20534;-72
2022/12/20 10:13:52;;;;;;;32.53;12.07;;;;;;;9.63;100.00;99960.41;5026880;28;20030;-73
2022/12/20 10:16:41;;;;;;;28.55;11.00;;;;;;;9.65;100.00;99951.78;5015476;28;20030;-73
2022/12/20 10:19:49;;;;;;;32.55;12.00;;;;;;;9.63;100.00;99957.63;5011739;28;20084;-72
2022/12/20 10:22:24;;;;;;;25.95;11.20;;;;;;;9.63;100.00;99957.63;4991686;28;20042;-73
2022/12/20 10:25:17;;;;;;;22.35;10.57;;;;;;;9.64;100.00;99948.19;4998102;28;20037;-72
2022/12/20 10:27:43;;;;;;;;;;;;;;;9.63;100.00;99958.44;5010657;28;20116;-73
2022/12/20 10:30:20;;;;;;;28.00;10.57;;;;;;;9.63;100.00;99957.63;5014237;28;19952;-72
2022/12/20 10:32:47;;;;;;;17.77;10.05;;;;;;;9.60;100.00;99956.28;4987931;28;20174;-73
2022/12/20 10:35:13;;;;;;;20.73;10.43;;;;;;;9.61;100.00;99960.72;5012137;28;20038;-72
2022/12/20 10:37:39;;;;;;;23.80;10.43;;;;;;;9.61;100.00;99959.88;5015218;28;20073;-73
2022/12/20 10:40:05;;;;;;;24.23;10.02;;;;;;;9.62;100.00;99953.22;4981714;28;20054;-72
2022/12/20 10:42:38;;;;;;;22.23;9.52;;;;;;;9.63;100.00;99957.63;5015264;28;20069;-73
2022/12/20 10:45:24;;;;;;;;;;;;;;;9.59;100.00;99943.56;4984682;28;20034;-73
2022/12/20 10:47:50;;;;;;;20.83;9.20;;;;;;;9.60;100.00;99942.41;5014974;28;19956;-72
2022/12/20 10:50:18;;;;;;;15.85;9.80;;;;;;;9.57;100.00;99945.78;4995892;28;20057;-73
2022/12/20 10:52:43;;;;;;;22.83;9.82;;;;;;;9.59;100.00;99939.97;5009403;28;20030;-72
2022/12/20 10:55:33;;;;;;;23.50;10.07;;;;;;;9.58;100.00;99947.47;5015262;28;20037;-73
2022/12/20 10:58:21;;;;;;;19.48;9.77;;;;;;;9.58;100.00;99950.22;4997937;28;20029;-73
2022/12/20 11:00:48;;;;;;;18.33;9.65;;;;;;;9.57;100.00;99943.03;5013475;28;20049;-73
2022/12/20 11:03:20;;;;;;;18.48;9.90;;;;;;;9.55;100.00;99945.25;5013906;28;20070;-73
2022/12/20 11:05:54;;;;;;;19.85;11.00;;;;;;;9.57;100.00;99942.19;5012099;28;20101;-73
2022/12/20 11:08:20;;;;;;;15.95;9.45;;;;;;;9.55;100.00;99931.41;5010545;28;20037;-73
2022/12/20 11:10:46;;;;;;;20.50;9.80;;;;;;;9.54;100.00;99921.44;4998220;28;20107;-73
2022/12/20 11:13:24;;;;;;;20.40;10.10;;;;;;;9.57;100.00;99925.56;5018338;28;20058;-72
2022/12/20 11:15:53;;;;;;;20.25;11.50;;;;;;;9.57;100.00;99918.06;5056220;28;20183;-73
2022/12/20 11:18:28;;;;;;;21.73;10.40;;;;;;;9.55;100.00;99923.09;5000368;28;20029;-73
2022/12/20 11:21:05;;;;;;;21.98;11.48;;;;;;;9.56;100.00;99910.06;5001885;28;20479;-73
2022/12/20 11:23:52;;;;;;;20.08;10.15;;;;;;;9.58;100.00;99914.19;4999261;28;20056;-73
2022/12/20 11:26:40;;;;;;;22.73;10.65;;;;;;;9.58;100.00;99914.19;5031609;28;20089;-72
2022/12/20 11:29:28;;;;;;;16.60;10.38;;;;;;;9.59;100.00;99912.25;5012662;28;20033;-73